Time;durP1;ratioP1;P1;durP2;ratioP2;P2;SDS_P1;SDS_P2;PMS_P1;PMS_P2;Temp;Humidity;BMP_temperature;BMP_pressure;BME280_temperature;BME280_humidity;BME280_pressure;Samples;Min_cycle;Max_cycle;Signal;HPM_P1;HPM_P2
2023/07/31 00:01:38;;;;;;;9.73;4.15;;;16.40;99.90;;;;;;5024943;28;20060;-46
2023/07/31 00:04:08;;;;;;;9.95;3.58;;;16.40;99.90;;;;;;5024516;28;20045;-44
2023/07/31 00:06:38;;;;;;;7.68;3.55;;;16.40;99.90;;;;;;5026839;28;20053;-50
2023/07/31 00:09:10;;;;;;;6.70;3.20;;;16.50;99.90;;;;;;5027894;28;20142;-50
2023/07/31 00:11:45;;;;;;;10.07;3.33;;;16.40;99.90;;;;;;5029044;28;20132;-49
2023/07/31 00:14:17;;;;;;;8.07;3.78;;;16.50;99.90;;;;;;5031516;28;20510;-45
2023/07/31 00:16:46;;;;;;;9.55;3.70;;;16.40;99.90;;;;;;5013925;28;20038;-47
2023/07/31 00:19:20;;;;;;;8.85;3.28;;;16.50;99.90;;;;;;5027443;28;20069;-48
2023/07/31 00:21:49;;;;;;;10.93;3.65;;;16.60;99.90;;;;;;5030565;28;20065;-48
2023/07/31 00:24:23;;;;;;;5.70;3.58;;;16.50;99.90;;;;;;5030222;28;20153;-49
2023/07/31 00:26:55;;;;;;;7.10;3.47;;;16.50;99.90;;;;;;5032551;28;20482;-48
2023/07/31 00:29:24;;;;;;;6.22;3.20;;;16.50;99.90;;;;;;5026825;28;20072;-50
2023/07/31 00:31:56;;;;;;;8.70;3.50;;;16.50;99.90;;;;;;5030677;28;20556;-53
2023/07/31 00:34:25;;;;;;;5.28;3.47;;;16.50;99.90;;;;;;5028267;28;20046;-45
2023/07/31 00:36:56;;;;;;;7.85;3.47;;;16.50;99.90;;;;;;5040814;28;20052;-48
2023/07/31 00:39:27;;;;;;;8.60;3.30;;;16.50;99.90;;;;;;5033347;28;20042;-48
2023/07/31 00:42:01;;;;;;;6.82;3.38;;;16.50;99.90;;;;;;5022772;28;20441;-50
2023/07/31 00:44:30;;;;;;;;;;;16.50;99.90;;;;;;5021552;28;20052;-51
2023/07/31 00:47:01;;;;;;;7.22;3.38;;;16.50;99.90;;;;;;5016462;28;20084;-49
2023/07/31 00:49:40;;;;;;;7.45;3.35;;;16.50;99.90;;;;;;5038602;28;20056;-49
2023/07/31 00:52:12;;;;;;;13.18;3.97;;;16.50;99.90;;;;;;5032183;28;20064;-50
2023/07/31 00:54:44;;;;;;;8.07;3.53;;;16.60;99.90;;;;;;4995674;28;20049;-48
2023/07/31 00:57:15;;;;;;;9.82;3.53;;;16.60;99.90;;;;;;5028688;28;20038;-49
2023/07/31 00:59:46;;;;;;;;;;;16.60;99.90;;;;;;5018160;28;20160;-49
2023/07/31 01:02:16;;;;;;;10.52;3.63;;;16.60;99.90;;;;;;5015369;28;19927;-50
2023/07/31 01:04:48;;;;;;;5.88;3.45;;;16.70;99.90;;;;;;5028487;28;20041;-57
2023/07/31 01:07:37;;;;;;;6.00;3.55;;;16.70;99.90;;;;;;5017767;28;20038;-49
2023/07/31 01:10:22;;;;;;;4.78;2.90;;;16.70;99.90;;;;;;5020628;28;20037;-51
2023/07/31 01:12:56;;;;;;;6.55;3.72;;;16.70;99.90;;;;;;5025578;28;20115;-47
2023/07/31 01:15:25;;;;;;;4.10;2.92;;;16.80;99.90;;;;;;5003014;28;20037;-49
2023/07/31 01:17:57;;;;;;;7.45;3.85;;;16.80;99.90;;;;;;5022508;28;20095;-46
2023/07/31 01:20:28;;;;;;;5.60;3.45;;;16.80;99.90;;;;;;5009649;28;20046;-48
2023/07/31 01:23:23;;;;;;;6.05;3.35;;;16.80;99.90;;;;;;5017030;28;20092;-46
2023/07/31 01:26:16;;;;;;;7.93;3.30;;;16.80;99.90;;;;;;5013354;28;20046;-47
2023/07/31 01:29:09;;;;;;;8.13;3.22;;;16.80;99.90;;;;;;5020590;28;20058;-50
2023/07/31 01:31:42;;;;;;;5.72;2.97;;;16.80;99.90;;;;;;5024157;28;20544;-46
2023/07/31 01:34:14;;;;;;;7.00;3.30;;;16.90;99.90;;;;;;5024011;28;20125;-46
2023/07/31 01:36:44;;;;;;;6.75;3.58;;;16.90;99.90;;;;;;5020275;28;20041;-52
2023/07/31 01:39:12;;;;;;;4.63;3.35;;;16.90;99.90;;;;;;5021088;28;20092;-47
2023/07/31 01:41:44;;;;;;;7.88;3.20;;;16.90;99.90;;;;;;5033737;28;20109;-47
2023/07/31 01:44:13;;;;;;;9.88;3.60;;;16.80;99.90;;;;;;5026143;28;20529;-47
2023/07/31 01:46:41;;;;;;;7.75;3.15;;;16.80;99.90;;;;;;5019072;28;20041;-46
2023/07/31 01:49:10;;;;;;;7.30;3.03;;;16.80;99.90;;;;;;5015009;28;20044;-50
2023/07/31 01:51:42;;;;;;;5.03;3.07;;;16.80;99.90;;;;;;5020881;28;20421;-53
2023/07/31 01:54:11;;;;;;;6.25;3.55;;;16.80;99.90;;;;;;5014832;28;20269;-50
2023/07/31 01:56:39;;;;;;;7.68;3.70;;;16.80;99.90;;;;;;5027512;28;20528;-51
2023/07/31 01:59:07;;;;;;;8.23;3.83;;;16.90;99.90;;;;;;5017594;28;20425;-51
2023/07/31 02:01:35;;;;;;;6.32;3.30;;;16.90;99.90;;;;;;5024451;28;20057;-47
2023/07/31 02:04:04;;;;;;;7.60;3.75;;;16.80;99.90;;;;;;5019736;28;20041;-46
2023/07/31 02:06:32;;;;;;;6.60;3.42;;;16.90;99.90;;;;;;5018139;28;20038;-46
2023/07/31 02:08:59;;;;;;;7.55;3.58;;;16.80;99.90;;;;;;5026356;28;20084;-44
2023/07/31 02:11:26;;;;;;;5.15;3.25;;;16.90;99.90;;;;;;5026073;28;20045;-45
2023/07/31 02:13:54;;;;;;;4.80;3.03;;;16.80;99.90;;;;;;5016892;28;20068;-48
2023/07/31 02:16:21;;;;;;;6.55;3.53;;;16.90;99.90;;;;;;5023803;28;20045;-47
2023/07/31 02:18:49;;;;;;;6.88;3.30;;;16.90;99.90;;;;;;5020750;28;20041;-50
2023/07/31 02:21:16;;;;;;;6.47;3.00;;;16.90;99.90;;;;;;5016079;28;20502;-47
2023/07/31 02:23:43;;;;;;;7.15;3.30;;;16.90;99.90;;;;;;5022369;28;20053;-46
2023/07/31 02:26:11;;;;;;;6.80;3.20;;;16.90;99.90;;;;;;5018224;28;20576;-44
2023/07/31 02:28:38;;;;;;;5.78;3.17;;;16.90;99.90;;;;;;5025031;28;20057;-46
2023/07/31 02:31:06;;;;;;;6.70;3.42;;;16.90;99.90;;;;;;5019435;28;20132;-49
2023/07/31 02:33:34;;;;;;;5.50;3.50;;;16.90;99.90;;;;;;5017064;28;20045;-49
2023/07/31 02:36:01;;;;;;;7.05;3.30;;;16.90;99.90;;;;;;5022974;28;20099;-49
2023/07/31 02:38:29;;;;;;;6.15;3.42;;;17.00;99.90;;;;;;5026674;28;20125;-49
2023/07/31 02:40:56;;;;;;;8.57;4.13;;;17.00;99.90;;;;;;5025304;28;20049;-50
2023/07/31 02:43:23;;;;;;;6.22;3.88;;;17.00;99.90;;;;;;5029298;28;20461;-49
2023/07/31 02:45:54;;;;;;;8.13;3.50;;;17.00;99.90;;;;;;5026828;28;20049;-46
2023/07/31 02:48:23;;;;;;;7.47;3.80;;;17.00;99.90;;;;;;5027567;28;20052;-52
2023/07/31 02:50:51;;;;;;;10.10;3.80;;;16.90;99.90;;;;;;5018846;28;20057;-44
2023/07/31 02:53:18;;;;;;;7.80;4.07;;;17.00;99.90;;;;;;5027847;28;20046;-50
2023/07/31 02:55:45;;;;;;;10.05;3.63;;;17.00;99.90;;;;;;5020028;28;20048;-54
2023/07/31 02:58:13;;;;;;;8.05;3.63;;;17.00;99.90;;;;;;5027517;28;20048;-49
2023/07/31 03:00:44;;;;;;;6.18;3.40;;;16.90;99.90;;;;;;5023045;28;20037;-52
2023/07/31 03:03:11;;;;;;;6.30;3.65;;;17.00;99.90;;;;;;5022130;28;20346;-47
2023/07/31 03:05:39;;;;;;;7.50;3.72;;;16.90;99.90;;;;;;5027805;28;20045;-48
2023/07/31 03:08:06;;;;;;;5.78;3.78;;;16.90;99.90;;;;;;5025747;28;20052;-48
2023/07/31 03:10:33;;;;;;;6.95;3.50;;;16.90;99.90;;;;;;5026138;28;20113;-52
2023/07/31 03:13:01;;;;;;;7.30;3.80;;;16.80;99.90;;;;;;5025988;28;20057;-47
2023/07/31 03:15:28;;;;;;;8.23;3.90;;;16.90;99.90;;;;;;5027753;28;20383;-50
2023/07/31 03:17:56;;;;;;;8.20;3.80;;;16.80;99.90;;;;;;5026240;28;20391;-50
2023/07/31 03:20:23;;;;;;;7.50;3.63;;;16.80;99.90;;;;;;5028809;28;20107;-46
2023/07/31 03:22:50;;;;;;;6.88;3.58;;;16.80;99.90;;;;;;5028565;28;20069;-49
2023/07/31 03:25:18;;;;;;;8.02;3.28;;;16.80;99.90;;;;;;5028444;28;20060;-49
2023/07/31 03:27:45;;;;;;;5.75;3.53;;;16.80;99.90;;;;;;5027414;28;20068;-48
2023/07/31 03:30:13;;;;;;;11.05;4.13;;;16.80;99.90;;;;;;5026964;28;20049;-48
2023/07/31 03:32:40;;;;;;;6.30;3.70;;;16.80;99.90;;;;;;5027436;28;20045;-44
2023/07/31 03:35:08;;;;;;;5.93;3.80;;;16.70;99.90;;;;;;5026457;28;20057;-52
2023/07/31 03:37:35;;;;;;;6.50;3.97;;;16.80;99.90;;;;;;5026213;28;20037;-44
2023/07/31 03:40:04;;;;;;;10.73;4.13;;;16.70;99.90;;;;;;5026586;28;20302;-47
2023/07/31 03:42:31;;;;;;;6.75;3.80;;;16.70;99.90;;;;;;5022033;28;20045;-48
2023/07/31 03:44:59;;;;;;;10.75;4.97;;;16.60;99.90;;;;;;5023323;28;20108;-45
2023/07/31 03:47:26;;;;;;;6.10;3.60;;;16.60;99.90;;;;;;5023027;28;20521;-48
2023/07/31 03:49:53;;;;;;;7.13;3.90;;;16.50;99.90;;;;;;5027763;28;21395;-50
2023/07/31 03:52:21;;;;;;;9.23;4.90;;;16.50;99.90;;;;;;5023074;28;20142;-50
2023/07/31 03:54:48;;;;;;;7.22;4.35;;;16.50;99.90;;;;;;5028598;28;20041;-51
2023/07/31 03:57:16;;;;;;;6.28;3.97;;;16.50;99.90;;;;;;5025081;28;20054;-47
2023/07/31 03:59:43;;;;;;;7.25;3.85;;;16.50;99.90;;;;;;5024652;28;20041;-50
2023/07/31 04:02:11;;;;;;;6.30;3.75;;;16.50;99.90;;;;;;5029324;28;20146;-48
2023/07/31 04:04:38;;;;;;;4.80;3.45;;;16.40;99.90;;;;;;5020928;28;20072;-50
2023/07/31 04:07:05;;;;;;;10.00;3.53;;;16.40;99.90;;;;;;5026131;28;20123;-54
2023/07/31 04:09:32;;;;;;;7.75;3.80;;;16.40;99.90;;;;;;5027139;28;20073;-50
2023/07/31 04:12:00;;;;;;;9.05;4.63;;;16.40;99.90;;;;;;5021486;28;20046;-52
2023/07/31 04:14:27;;;;;;;6.68;3.60;;;16.50;99.90;;;;;;5018777;28;20044;-48
2023/07/31 04:16:55;;;;;;;8.48;3.70;;;16.40;99.90;;;;;;5026773;28;20038;-46
2023/07/31 04:19:22;;;;;;;8.63;4.72;;;16.40;99.90;;;;;;5025965;28;20049;-51
2023/07/31 04:21:49;;;;;;;8.57;4.35;;;16.40;99.90;;;;;;5026834;28;20559;-47
2023/07/31 04:24:23;;;;;;;8.32;5.15;;;16.50;99.90;;;;;;5026764;28;20058;-49
2023/07/31 04:26:52;;;;;;;5.93;4.05;;;16.50;99.90;;;;;;5026155;28;20049;-48
2023/07/31 04:29:20;;;;;;;6.88;3.67;;;16.60;99.90;;;;;;5026217;28;20111;-49
2023/07/31 04:31:48;;;;;;;8.00;3.83;;;16.60;99.90;;;;;;5026464;28;20045;-46
2023/07/31 04:34:15;;;;;;;8.15;4.18;;;16.60;99.90;;;;;;5027180;28;20417;-45
2023/07/31 04:36:43;;;;;;;9.90;4.13;;;16.60;99.90;;;;;;5027897;28;20415;-49
2023/07/31 04:39:10;;;;;;;6.63;4.13;;;16.70;99.90;;;;;;5019899;28;20049;-47
2023/07/31 04:41:37;;;;;;;7.85;3.80;;;16.70;99.90;;;;;;5027283;28;20037;-49
2023/07/31 04:44:05;;;;;;;7.70;3.80;;;16.70;99.90;;;;;;5023476;28;20042;-45
2023/07/31 04:46:32;;;;;;;8.93;4.07;;;16.80;99.90;;;;;;5025491;28;20095;-50
2023/07/31 04:49:00;;;;;;;9.25;4.10;;;16.80;99.90;;;;;;5024681;28;20534;-44
2023/07/31 04:51:27;;;;;;;9.95;4.28;;;16.90;99.90;;;;;;5026916;28;20073;-46
2023/07/31 04:53:56;;;;;;;9.80;4.25;;;16.90;99.90;;;;;;5025293;28;20129;-51
2023/07/31 04:56:23;;;;;;;7.50;4.15;;;16.90;99.90;;;;;;5021727;28;20048;-51
2023/07/31 04:58:51;;;;;;;7.68;4.47;;;17.00;99.90;;;;;;5024829;28;20143;-47
2023/07/31 05:01:18;;;;;;;11.75;4.75;;;17.10;99.90;;;;;;5022417;28;20144;-45
2023/07/31 05:03:45;;;;;;;8.68;4.45;;;17.20;99.90;;;;;;5029184;28;20049;-50
2023/07/31 05:06:15;;;;;;;9.13;4.45;;;17.10;99.90;;;;;;5019900;28;20042;-49
2023/07/31 05:08:42;;;;;;;7.90;4.13;;;17.20;99.90;;;;;;5020866;28;20080;-47
2023/07/31 05:11:09;;;;;;;9.10;4.60;;;17.20;99.90;;;;;;5017568;28;20495;-51
2023/07/31 05:13:37;;;;;;;7.57;4.38;;;17.20;99.90;;;;;;5026734;28;20124;-46
2023/07/31 05:16:04;;;;;;;10.82;4.82;;;17.30;99.90;;;;;;5018402;28;20075;-52
2023/07/31 05:18:31;;;;;;;7.03;4.18;;;17.30;99.90;;;;;;5022013;28;20042;-50
2023/07/31 05:20:59;;;;;;;10.68;3.95;;;17.30;99.90;;;;;;5021920;28;20053;-47
2023/07/31 05:23:27;;;;;;;6.95;4.38;;;17.30;99.90;;;;;;5016914;28;20046;-47
2023/07/31 05:25:54;;;;;;;9.18;4.10;;;17.40;99.90;;;;;;5023733;28;20057;-47
2023/07/31 05:28:21;;;;;;;7.72;4.03;;;17.50;99.90;;;;;;5026670;28;20111;-48
2023/07/31 05:30:49;;;;;;;5.97;4.28;;;17.50;99.90;;;;;;5021729;28;20572;-47
2023/07/31 05:33:16;;;;;;;8.18;4.70;;;17.50;99.90;;;;;;5017591;28;20082;-50
2023/07/31 05:35:44;;;;;;;7.15;4.15;;;17.60;99.90;;;;;;5028309;28;20395;-52
2023/07/31 05:38:12;;;;;;;8.98;4.05;;;17.70;99.90;;;;;;5019036;28;20670;-46
2023/07/31 05:40:39;;;;;;;11.10;4.25;;;17.70;99.90;;;;;;5017648;28;20097;-46
2023/07/31 05:43:08;;;;;;;6.43;4.07;;;17.70;99.90;;;;;;5020781;28;20045;-53
2023/07/31 05:45:36;;;;;;;6.75;4.50;;;17.70;99.90;;;;;;5021434;28;20099;-45
2023/07/31 05:48:04;;;;;;;6.55;3.97;;;17.60;99.90;;;;;;5028461;28;20045;-52
2023/07/31 05:50:31;;;;;;;7.55;4.15;;;17.70;99.90;;;;;;5029572;28;20049;-48
2023/07/31 05:52:59;;;;;;;8.55;4.28;;;17.70;99.90;;;;;;5025288;28;20534;-54
2023/07/31 05:55:26;;;;;;;9.18;4.10;;;17.80;99.90;;;;;;5018041;28;20038;-48
2023/07/31 05:57:54;;;;;;;5.53;4.30;;;17.90;99.90;;;;;;5022605;28;20049;-49
2023/07/31 06:00:22;;;;;;;5.03;3.88;;;18.20;99.90;;;;;;5024204;28;20041;-47
2023/07/31 06:02:49;;;;;;;8.57;4.35;;;18.30;99.90;;;;;;5029497;28;20064;-51
2023/07/31 06:05:17;;;;;;;11.15;5.75;;;18.30;99.90;;;;;;5027902;28;20340;-49
2023/07/31 06:07:44;;;;;;;7.38;4.97;;;18.30;99.90;;;;;;5025151;28;20085;-54
2023/07/31 06:10:12;;;;;;;6.05;4.72;;;18.40;99.90;;;;;;5020128;28;20045;-52
2023/07/31 06:12:39;;;;;;;6.50;4.70;;;18.50;99.90;;;;;;5019845;28;20100;-51
2023/07/31 06:15:07;;;;;;;6.10;4.07;;;18.50;99.90;;;;;;5026247;28;20041;-47
2023/07/31 06:17:34;;;;;;;6.00;3.97;;;18.70;99.90;;;;;;5017487;28;20045;-50
2023/07/31 06:20:01;;;;;;;6.50;4.45;;;18.90;99.90;;;;;;5022148;28;20063;-44
2023/07/31 06:22:29;;;;;;;7.60;4.40;;;18.90;99.90;;;;;;5023995;28;20088;-51
2023/07/31 06:24:56;;;;;;;9.63;4.57;;;19.00;99.90;;;;;;5026344;28;20088;-47
2023/07/31 06:27:23;;;;;;;8.13;4.72;;;19.10;99.90;;;;;;5022674;28;20129;-47
2023/07/31 06:29:51;;;;;;;7.63;4.55;;;19.30;99.90;;;;;;5028588;28;20506;-45
2023/07/31 06:32:18;;;;;;;8.85;4.70;;;19.40;99.90;;;;;;5030415;28;20053;-50
2023/07/31 06:34:46;;;;;;;7.35;4.53;;;19.40;99.90;;;;;;5022588;28;20490;-42
2023/07/31 06:37:13;;;;;;;7.03;4.15;;;19.50;99.90;;;;;;5026220;28;20530;-47
2023/07/31 06:39:40;;;;;;;7.55;4.40;;;19.60;99.90;;;;;;5021730;28;20045;-46
2023/07/31 06:42:08;;;;;;;5.45;4.38;;;19.60;99.90;;;;;;5015388;28;20563;-45
2023/07/31 06:44:35;;;;;;;6.60;4.70;;;19.70;99.90;;;;;;5017747;28;20050;-51
2023/07/31 06:47:03;;;;;;;20.63;12.70;;;19.80;99.90;;;;;;5021336;28;20057;-45
2023/07/31 06:49:30;;;;;;;9.13;5.20;;;19.80;99.90;;;;;;5022876;28;20079;-43
2023/07/31 06:51:58;;;;;;;9.20;5.13;;;19.80;99.90;;;;;;5022415;28;20045;-44
2023/07/31 06:54:25;;;;;;;6.65;4.68;;;19.80;99.90;;;;;;5025293;28;20467;-44
2023/07/31 06:56:53;;;;;;;7.15;4.70;;;19.80;99.90;;;;;;5034487;28;20045;-46
2023/07/31 06:59:20;;;;;;;8.07;5.00;;;19.90;99.90;;;;;;5027101;28;20446;-47
2023/07/31 07:01:49;;;;;;;6.43;4.47;;;20.00;99.90;;;;;;5022473;28;20141;-44
2023/07/31 07:04:16;;;;;;;7.18;4.80;;;20.10;99.90;;;;;;5026410;28;20042;-43
2023/07/31 07:06:43;;;;;;;8.20;4.78;;;20.20;99.90;;;;;;5023853;28;20045;-47
2023/07/31 07:09:11;;;;;;;7.20;5.00;;;20.20;99.90;;;;;;5025448;28;20069;-46
2023/07/31 07:11:38;;;;;;;7.30;4.72;;;20.20;99.90;;;;;;5018803;28;20391;-43
2023/07/31 07:14:06;;;;;;;7.80;4.80;;;20.30;99.90;;;;;;5024034;28;20111;-44
2023/07/31 07:16:34;;;;;;;7.57;4.53;;;20.30;99.90;;;;;;5017941;28;20431;-46
2023/07/31 07:19:01;;;;;;;6.95;5.03;;;20.40;99.90;;;;;;5027336;28;20041;-45
2023/07/31 07:21:31;;;;;;;6.72;4.45;;;20.50;99.90;;;;;;5027563;28;20045;-46
2023/07/31 07:23:58;;;;;;;9.65;4.78;;;20.50;99.90;;;;;;5021086;28;20099;-47
2023/07/31 07:26:26;;;;;;;7.07;4.47;;;20.50;99.90;;;;;;5018949;28;20050;-48
2023/07/31 07:28:53;;;;;;;11.57;4.95;;;20.50;99.90;;;;;;5026712;28;20056;-45
2023/07/31 07:31:21;;;;;;;9.30;4.80;;;20.50;99.90;;;;;;5028776;28;20045;-47
2023/07/31 07:33:49;;;;;;;8.07;4.40;;;20.50;99.90;;;;;;5026856;28;20076;-48
2023/07/31 07:36:16;;;;;;;7.82;4.47;;;20.50;99.90;;;;;;5027533;28;20476;-47
2023/07/31 07:38:43;;;;;;;10.40;5.05;;;20.40;99.90;;;;;;5020983;28;20524;-49
2023/07/31 07:41:11;;;;;;;7.10;4.80;;;20.40;99.90;;;;;;5026629;28;20464;-44
2023/07/31 07:43:38;;;;;;;8.88;4.63;;;20.30;99.90;;;;;;5027123;28;20465;-45
2023/07/31 07:46:05;;;;;;;6.47;4.63;;;20.30;99.90;;;;;;5028422;28;20045;-46
2023/07/31 07:48:33;;;;;;;7.28;5.20;;;20.30;99.90;;;;;;5021981;28;20548;-43
2023/07/31 07:51:00;;;;;;;6.93;4.80;;;20.40;99.90;;;;;;5027275;28;20136;-44
2023/07/31 07:53:27;;;;;;;7.68;5.03;;;20.60;99.90;;;;;;5028359;28;20095;-45
2023/07/31 07:55:55;;;;;;;8.35;4.95;;;20.70;99.90;;;;;;5016801;28;20051;-50
2023/07/31 07:58:22;;;;;;;9.18;5.13;;;20.60;99.90;;;;;;5025439;28;20053;-46
2023/07/31 08:00:52;;;;;;;7.43;4.75;;;20.50;99.90;;;;;;5026511;28;20049;-45
2023/07/31 08:03:20;;;;;;;7.80;4.78;;;20.40;99.90;;;;;;5026904;28;20111;-47
2023/07/31 08:05:47;;;;;;;7.60;4.80;;;20.60;99.90;;;;;;5021163;28;20105;-49
2023/07/31 08:08:18;;;;;;;10.20;4.80;;;20.70;99.90;;;;;;5026178;28;20111;-48
2023/07/31 08:10:45;;;;;;;6.43;4.63;;;21.10;99.90;;;;;;5027079;28;20170;-49
2023/07/31 08:13:12;;;;;;;8.45;4.43;;;21.10;99.90;;;;;;5028249;28;20115;-46
2023/07/31 08:15:43;;;;;;;8.77;4.80;;;21.10;99.90;;;;;;5026655;28;20256;-44
2023/07/31 08:18:13;;;;;;;8.57;4.70;;;21.30;99.90;;;;;;5027027;28;20041;-50
2023/07/31 08:20:41;;;;;;;6.63;4.97;;;21.30;99.90;;;;;;5026531;28;20029;-49
2023/07/31 08:23:08;;;;;;;8.52;4.85;;;21.20;99.90;;;;;;5024680;28;20430;-44
2023/07/31 08:25:36;;;;;;;7.45;5.40;;;21.10;99.90;;;;;;5022551;28;20250;-45
2023/07/31 08:28:05;;;;;;;9.32;5.07;;;21.30;99.90;;;;;;5026529;28;20060;-44
2023/07/31 08:30:36;;;;;;;9.45;4.70;;;21.30;99.90;;;;;;5036829;28;20049;-45
2023/07/31 08:33:03;;;;;;;6.93;4.75;;;21.40;99.90;;;;;;5030964;28;20049;-45
2023/07/31 08:35:31;;;;;;;8.27;5.30;;;21.50;99.90;;;;;;5027769;28;20042;-44
2023/07/31 08:37:58;;;;;;;9.50;4.97;;;21.60;99.90;;;;;;5029650;28;20050;-53
2023/07/31 08:40:26;;;;;;;9.55;4.85;;;21.50;99.90;;;;;;5030843;28;20120;-48
2023/07/31 08:42:56;;;;;;;9.48;5.25;;;21.70;99.90;;;;;;5031273;28;20049;-45
2023/07/31 08:45:23;;;;;;;10.35;5.45;;;21.70;99.90;;;;;;5028196;28;20050;-47
2023/07/31 08:47:51;;;;;;;8.73;5.88;;;21.90;99.90;;;;;;5025183;28;20107;-51
2023/07/31 08:50:21;;;;;;;9.85;5.10;;;22.10;99.90;;;;;;5039050;28;20088;-48
2023/07/31 08:52:50;;;;;;;7.05;5.18;;;22.30;99.90;;;;;;5029958;28;20270;-49
2023/07/31 08:55:23;;;;;;;7.70;5.18;;;22.00;99.90;;;;;;5029979;28;20045;-46
2023/07/31 08:57:55;;;;;;;8.13;4.53;;;22.00;99.90;;;;;;5031080;28;20037;-47
2023/07/31 09:00:25;;;;;;;8.00;4.85;;;22.20;99.90;;;;;;5019559;28;20038;-50
2023/07/31 09:03:27;;;;;;;9.30;4.30;;;22.20;99.90;;;;;;5029249;28;20042;-49
2023/07/31 09:05:57;;;;;;;5.68;4.13;;;22.00;99.90;;;;;;5016491;28;20513;-45
2023/07/31 09:08:30;;;;;;;8.15;4.35;;;22.10;99.90;;;;;;5029735;28;20486;-52
2023/07/31 09:11:05;;;;;;;7.22;4.43;;;22.10;99.90;;;;;;5028986;28;20521;-50
2023/07/31 09:13:33;;;;;;;7.15;4.57;;;21.80;99.90;;;;;;5030570;28;20042;-46
2023/07/31 09:16:00;;;;;;;6.68;4.45;;;21.80;99.90;;;;;;5029320;28;20104;-49
2023/07/31 09:18:27;;;;;;;7.22;4.90;;;21.80;99.90;;;;;;5026994;28;20107;-52
2023/07/31 09:21:05;;;;;;;8.85;5.15;;;22.00;99.90;;;;;;5030084;28;20057;-48
2023/07/31 09:23:44;;;;;;;6.85;4.85;;;22.10;99.90;;;;;;5029227;28;20099;-44
2023/07/31 09:26:28;;;;;;;8.23;4.65;;;22.30;99.90;;;;;;5028345;28;20069;-47
2023/07/31 09:28:55;;;;;;;8.48;4.82;;;22.70;99.90;;;;;;5024148;28;20159;-47
2023/07/31 09:31:41;;;;;;;13.25;4.82;;;22.60;99.90;;;;;;5026972;28;20049;-47
2023/07/31 09:34:10;;;;;;;9.02;5.15;;;22.50;99.90;;;;;;5025699;28;20499;-48
2023/07/31 09:36:45;;;;;;;6.97;4.57;;;22.40;99.90;;;;;;5026016;28;20123;-42
2023/07/31 09:39:14;;;;;;;11.02;4.80;;;22.30;99.90;;;;;;5029664;28;20069;-45
2023/07/31 09:41:44;;;;;;;7.68;5.07;;;22.50;99.90;;;;;;5027492;28;20053;-43
2023/07/31 09:44:12;;;;;;;7.75;4.75;;;23.00;99.90;;;;;;5028418;28;20152;-53
2023/07/31 09:46:40;;;;;;;8.93;5.43;;;23.00;99.90;;;;;;5027645;28;20095;-45
2023/07/31 09:49:13;;;;;;;9.82;4.97;;;23.40;99.90;;;;;;5029041;28;20145;-47
2023/07/31 09:51:42;;;;;;;9.52;5.00;;;23.40;99.90;;;;;;5030410;28;20065;-44
2023/07/31 09:54:14;;;;;;;6.28;4.85;;;23.10;99.90;;;;;;5028600;28;20432;-45
2023/07/31 09:56:46;;;;;;;7.45;5.50;;;22.80;99.90;;;;;;5030060;28;20490;-49
2023/07/31 09:59:16;;;;;;;7.25;5.10;;;22.60;99.90;;;;;;5027342;28;20061;-45
2023/07/31 10:01:46;;;;;;;;;;;22.50;99.90;;;;;;5031931;28;20033;-45
2023/07/31 10:04:15;;;;;;;8.43;5.03;;;22.40;99.90;;;;;;5032743;28;19929;-46
2023/07/31 10:06:45;;;;;;;5.85;4.70;;;22.50;99.90;;;;;;5028175;28;20505;-43
2023/07/31 10:09:18;;;;;;;8.38;4.90;;;22.90;99.90;;;;;;5028918;28;20091;-48
2023/07/31 10:11:55;;;;;;;7.50;5.05;;;22.90;99.90;;;;;;5026155;28;20057;-46
2023/07/31 10:14:24;;;;;;;8.20;5.28;;;23.40;99.90;;;;;;5029723;28;20056;-47
2023/07/31 10:16:52;;;;;;;6.32;5.00;;;23.60;99.90;;;;;;5025840;28;20139;-47
2023/07/31 10:19:21;;;;;;;7.20;5.15;;;23.60;99.90;;;;;;5016586;28;20049;-48
2023/07/31 10:21:49;;;;;;;8.32;5.60;;;23.20;99.90;;;;;;5028419;28;20140;-47
2023/07/31 10:24:16;;;;;;;9.43;5.57;;;23.30;99.90;;;;;;5029100;28;20041;-48
2023/07/31 10:26:47;;;;;;;6.80;5.20;;;23.20;99.90;;;;;;5028856;28;20071;-44
2023/07/31 10:29:16;;;;;;;8.90;5.07;;;23.00;99.90;;;;;;5028660;28;20554;-43
2023/07/31 10:31:44;;;;;;;9.52;5.10;;;23.20;99.90;;;;;;5024174;28;20437;-50
2023/07/31 10:34:12;;;;;;;6.45;5.18;;;23.20;99.90;;;;;;5028444;28;20045;-48
2023/07/31 10:36:40;;;;;;;7.18;5.22;;;23.00;99.90;;;;;;5028262;28;20402;-47
2023/07/31 10:39:39;;;;;;;5.40;4.70;;;22.80;99.90;;;;;;5020323;28;20411;-47
2023/07/31 10:42:11;;;;;;;7.43;4.80;;;22.90;99.90;;;;;;5026526;28;20045;-48
2023/07/31 10:44:45;;;;;;;8.52;5.32;;;23.20;99.90;;;;;;5021965;28;20091;-48
2023/07/31 10:47:16;;;;;;;6.88;4.68;;;23.30;99.90;;;;;;5021576;28;20140;-51
2023/07/31 10:49:46;;;;;;;8.73;5.35;;;23.50;99.90;;;;;;5027650;28;20131;-46
2023/07/31 10:52:23;;;;;;;5.60;5.10;;;23.60;99.90;;;;;;5026375;28;20127;-50
2023/07/31 10:55:16;;;;;;;7.75;5.07;;;23.80;99.90;;;;;;5024912;28;20506;-43
2023/07/31 10:57:50;;;;;;;12.90;5.10;;;23.80;99.90;;;;;;5019956;28;20140;-48
2023/07/31 11:00:19;;;;;;;6.38;4.70;;;23.70;99.90;;;;;;5025295;28;20465;-47
2023/07/31 11:03:10;;;;;;;8.55;5.00;;;23.70;99.90;;;;;;5027763;28;20026;-50
2023/07/31 11:06:00;;;;;;;7.22;4.90;;;23.90;99.90;;;;;;5024514;28;20504;-49
2023/07/31 11:08:30;;;;;;;7.88;4.90;;;23.80;99.90;;;;;;5025620;28;20049;-45
2023/07/31 11:11:03;;;;;;;7.15;4.80;;;23.40;99.90;;;;;;5028312;28;20528;-50
2023/07/31 11:13:34;;;;;;;7.95;5.20;;;23.40;99.90;;;;;;5029047;28;20068;-45
2023/07/31 11:16:01;;;;;;;7.53;4.70;;;23.30;99.90;;;;;;5027282;28;20352;-43
2023/07/31 11:18:29;;;;;;;7.00;4.97;;;23.20;99.90;;;;;;5025866;28;20133;-48
2023/07/31 11:20:56;;;;;;;7.72;5.05;;;23.20;99.90;;;;;;5025660;28;20072;-43
2023/07/31 11:23:24;;;;;;;6.32;5.10;;;23.40;99.90;;;;;;5024374;28;20212;-44
2023/07/31 11:25:51;;;;;;;6.47;4.97;;;23.40;99.90;;;;;;5028242;28;20107;-45
2023/07/31 11:28:19;;;;;;;10.98;5.88;;;23.10;99.90;;;;;;5028694;28;20395;-45
2023/07/31 11:30:47;;;;;;;7.57;4.90;;;23.00;99.90;;;;;;5028147;28;20093;-43
2023/07/31 11:33:14;;;;;;;8.73;5.40;;;23.00;99.90;;;;;;5028642;28;20561;-44
2023/07/31 11:35:47;;;;;;;8.30;5.47;;;23.00;99.90;;;;;;5027499;28;20049;-47
2023/07/31 11:38:27;;;;;;;8.77;5.13;;;23.00;99.90;;;;;;5025916;28;20097;-48
2023/07/31 11:40:56;;;;;;;8.38;5.22;;;22.70;99.90;;;;;;5033661;28;20544;-42
2023/07/31 11:43:24;;;;;;;7.03;4.82;;;22.70;99.90;;;;;;5029811;28;20109;-43
2023/07/31 11:45:54;;;;;;;10.40;5.80;;;22.70;99.90;;;;;;5026652;28;20042;-44
2023/07/31 11:48:27;;;;;;;8.20;5.38;;;22.70;99.90;;;;;;5023754;28;20049;-46
2023/07/31 11:50:58;;;;;;;10.48;4.97;;;22.80;99.90;;;;;;5021158;28;20053;-43
2023/07/31 11:53:47;;;;;;;7.85;5.15;;;23.00;99.90;;;;;;5028173;28;20464;-46
2023/07/31 11:56:18;;;;;;;6.82;5.20;;;23.30;99.90;;;;;;5025525;28;20050;-40
2023/07/31 11:58:47;;;;;;;6.28;4.82;;;23.50;99.90;;;;;;5025366;28;20065;-43
2023/07/31 12:01:20;;;;;;;9.75;5.40;;;23.50;99.90;;;;;;5021815;28;20137;-46
2023/07/31 12:03:49;;;;;;;8.23;5.20;;;23.40;99.90;;;;;;5027765;28;20045;-43
2023/07/31 12:06:17;;;;;;;8.38;5.13;;;23.50;99.90;;;;;;5031639;28;20229;-46
2023/07/31 12:08:44;;;;;;;8.05;5.13;;;23.70;99.90;;;;;;5034599;28;20042;-47
2023/07/31 12:11:15;;;;;;;8.35;4.97;;;23.70;99.90;;;;;;5030136;28;20123;-44
2023/07/31 12:13:42;;;;;;;7.20;5.10;;;23.50;99.90;;;;;;5029076;28;20065;-48
2023/07/31 12:16:09;;;;;;;7.45;5.40;;;23.20;99.90;;;;;;5032955;28;20069;-41
2023/07/31 12:18:38;;;;;;;8.05;5.18;;;23.20;99.90;;;;;;5032951;28;20050;-43
2023/07/31 12:21:11;;;;;;;6.38;4.75;;;23.50;99.90;;;;;;5032581;28;20045;-46
2023/07/31 12:23:41;;;;;;;12.13;5.68;;;23.40;99.90;;;;;;5027791;28;20045;-49
2023/07/31 12:26:10;;;;;;;8.40;4.90;;;23.40;99.90;;;;;;5025641;28;20038;-48
2023/07/31 12:28:40;;;;;;;7.50;5.43;;;23.50;99.90;;;;;;5029637;28;20412;-47
2023/07/31 12:31:20;;;;;;;8.02;5.78;;;23.80;99.90;;;;;;5031036;28;20045;-45
2023/07/31 12:33:49;;;;;;;7.82;5.32;;;24.10;99.90;;;;;;5025711;28;20100;-44
2023/07/31 12:36:21;;;;;;;7.57;5.60;;;24.40;99.90;;;;;;5033367;28;20437;-42
2023/07/31 12:38:50;;;;;;;7.15;5.55;;;24.40;99.90;;;;;;5031909;28;20053;-44
2023/07/31 12:41:18;;;;;;;7.78;5.63;;;24.40;99.90;;;;;;5031996;28;20128;-44
2023/07/31 12:43:45;;;;;;;7.78;5.78;;;24.30;99.90;;;;;;5032852;28;20053;-46
2023/07/31 12:46:14;;;;;;;6.50;5.45;;;24.40;99.90;;;;;;5031122;28;20142;-43
2023/07/31 12:48:41;;;;;;;7.93;5.60;;;24.10;99.90;;;;;;5033070;28;20049;-46
2023/07/31 12:51:08;;;;;;;9.13;5.57;;;24.30;99.90;;;;;;5032235;28;20053;-46
2023/07/31 12:53:36;;;;;;;9.00;5.45;;;24.30;99.90;;;;;;5034109;28;20060;-43
2023/07/31 12:56:04;;;;;;;11.50;6.35;;;24.10;99.90;;;;;;5026509;28;20069;-45
2023/07/31 12:58:31;;;;;;;5.88;4.82;;;23.70;99.90;;;;;;5028076;28;20430;-44